sensor_id;sensor_type;location;lat;lon;timestamp;P1;durP1;ratioP1;P2;durP2;ratioP2
934;SDS011;454;53.254;10.400;2023-04-15T04:01:37;3.50;;;3.13;;
934;SDS011;454;53.254;10.400;2023-04-15T04:04:04;2.42;;;2.25;;
934;SDS011;454;53.254;10.400;2023-04-15T04:06:31;4.72;;;4.28;;
934;SDS011;454;53.254;10.400;2023-04-15T04:08:58;4.07;;;2.40;;
934;SDS011;454;53.254;10.400;2023-04-15T04:11:25;6.38;;;2.70;;
934;SDS011;454;53.254;10.400;2023-04-15T04:13:52;3.40;;;2.47;;
934;SDS011;454;53.254;10.400;2023-04-15T04:16:19;4.93;;;3.83;;
934;SDS011;454;53.254;10.400;2023-04-15T04:18:47;9.95;;;5.50;;
934;SDS011;454;53.254;10.400;2023-04-15T04:21:14;5.97;;;4.43;;
934;SDS011;454;53.254;10.400;2023-04-15T04:23:41;10.13;;;3.03;;
934;SDS011;454;53.254;10.400;2023-04-15T04:26:07;6.57;;;4.93;;
934;SDS011;454;53.254;10.400;2023-04-15T04:28:34;13.85;;;5.43;;
934;SDS011;454;53.254;10.400;2023-04-15T04:31:01;3.95;;;3.47;;
934;SDS011;454;53.254;10.400;2023-04-15T04:33:27;6.93;;;3.20;;
934;SDS011;454;53.254;10.400;2023-04-15T04:35:56;12.32;;;4.32;;
934;SDS011;454;53.254;10.400;2023-04-15T04:38:22;4.65;;;3.63;;
934;SDS011;454;53.254;10.400;2023-04-15T04:40:49;7.38;;;3.30;;
934;SDS011;454;53.254;10.400;2023-04-15T04:43:16;10.05;;;6.78;;
934;SDS011;454;53.254;10.400;2023-04-15T04:45:43;5.80;;;5.30;;
934;SDS011;454;53.254;10.400;2023-04-15T04:48:10;5.38;;;3.92;;
934;SDS011;454;53.254;10.400;2023-04-15T04:50:37;4.53;;;4.10;;
934;SDS011;454;53.254;10.400;2023-04-15T04:53:05;5.90;;;3.70;;
934;SDS011;454;53.254;10.400;2023-04-15T04:55:32;4.78;;;3.25;;
934;SDS011;454;53.254;10.400;2023-04-15T04:58:00;3.15;;;3.05;;
934;SDS011;454;53.254;10.400;2023-04-15T05:00:27;6.05;;;2.70;;
934;SDS011;454;53.254;10.400;2023-04-15T05:02:54;8.52;;;5.70;;
934;SDS011;454;53.254;10.400;2023-04-15T05:05:21;6.20;;;4.13;;
934;SDS011;454;53.254;10.400;2023-04-15T05:07:48;7.38;;;4.30;;
934;SDS011;454;53.254;10.400;2023-04-15T05:10:16;3.60;;;3.33;;
934;SDS011;454;53.254;10.400;2023-04-15T05:12:43;4.97;;;3.45;;
934;SDS011;454;53.254;10.400;2023-04-15T05:15:10;7.18;;;6.45;;
934;SDS011;454;53.254;10.400;2023-04-15T05:17:37;9.60;;;6.15;;
934;SDS011;454;53.254;10.400;2023-04-15T05:20:03;13.80;;;4.40;;
934;SDS011;454;53.254;10.400;2023-04-15T05:22:31;9.05;;;5.13;;
934;SDS011;454;53.254;10.400;2023-04-15T05:24:58;2.30;;;2.10;;
934;SDS011;454;53.254;10.400;2023-04-15T05:27:26;25.95;;;5.20;;
934;SDS011;454;53.254;10.400;2023-04-15T05:29:53;5.25;;;4.63;;
934;SDS011;454;53.254;10.400;2023-04-15T05:32:20;9.57;;;4.93;;
934;SDS011;454;53.254;10.400;2023-04-15T05:34:47;4.22;;;3.47;;
934;SDS011;454;53.254;10.400;2023-04-15T05:37:14;3.83;;;3.67;;
934;SDS011;454;53.254;10.400;2023-04-15T05:39:40;10.40;;;5.03;;
934;SDS011;454;53.254;10.400;2023-04-15T05:42:07;7.35;;;5.10;;
934;SDS011;454;53.254;10.400;2023-04-15T05:44:35;12.45;;;3.65;;
934;SDS011;454;53.254;10.400;2023-04-15T05:47:02;10.27;;;4.82;;
934;SDS011;454;53.254;10.400;2023-04-15T05:49:29;7.75;;;3.17;;
934;SDS011;454;53.254;10.400;2023-04-15T05:51:56;12.18;;;5.60;;
934;SDS011;454;53.254;10.400;2023-04-15T05:54:23;9.60;;;5.55;;
934;SDS011;454;53.254;10.400;2023-04-15T05:56:51;12.60;;;5.00;;
934;SDS011;454;53.254;10.400;2023-04-15T05:59:18;4.60;;;3.45;;
934;SDS011;454;53.254;10.400;2023-04-15T06:01:47;7.68;;;6.38;;
934;SDS011;454;53.254;10.400;2023-04-15T06:04:13;5.07;;;3.63;;
934;SDS011;454;53.254;10.400;2023-04-15T06:06:41;10.13;;;4.95;;
934;SDS011;454;53.254;10.400;2023-04-15T06:09:07;10.80;;;7.43;;
934;SDS011;454;53.254;10.400;2023-04-15T06:11:34;10.65;;;7.90;;
934;SDS011;454;53.254;10.400;2023-04-15T06:14:01;3.50;;;3.40;;
934;SDS011;454;53.254;10.400;2023-04-15T06:16:27;6.72;;;6.13;;
934;SDS011;454;53.254;10.400;2023-04-15T06:18:55;6.65;;;6.05;;
934;SDS011;454;53.254;10.400;2023-04-15T06:21:22;7.85;;;4.28;;
934;SDS011;454;53.254;10.400;2023-04-15T06:23:49;10.32;;;8.80;;
934;SDS011;454;53.254;10.400;2023-04-15T06:26:16;9.85;;;8.88;;
934;SDS011;454;53.254;10.400;2023-04-15T06:28:43;7.60;;;6.85;;
934;SDS011;454;53.254;10.400;2023-04-15T06:31:09;27.83;;;8.98;;
934;SDS011;454;53.254;10.400;2023-04-15T06:33:36;8.95;;;6.30;;
934;SDS011;454;53.254;10.400;2023-04-15T06:36:05;14.90;;;6.65;;
934;SDS011;454;53.254;10.400;2023-04-15T06:38:32;12.88;;;7.35;;
934;SDS011;454;53.254;10.400;2023-04-15T06:40:58;14.35;;;8.60;;
934;SDS011;454;53.254;10.400;2023-04-15T06:43:25;18.33;;;10.93;;
934;SDS011;454;53.254;10.400;2023-04-15T06:45:52;6.18;;;5.57;;
934;SDS011;454;53.254;10.400;2023-04-15T06:48:19;11.63;;;8.95;;
934;SDS011;454;53.254;10.400;2023-04-15T06:50:46;7.95;;;6.72;;
934;SDS011;454;53.254;10.400;2023-04-15T06:53:14;15.05;;;6.43;;
934;SDS011;454;53.254;10.400;2023-04-15T06:55:40;14.38;;;7.60;;
934;SDS011;454;53.254;10.400;2023-04-15T06:58:07;11.85;;;7.35;;
934;SDS011;454;53.254;10.400;2023-04-15T07:00:34;16.52;;;9.20;;
934;SDS011;454;53.254;10.400;2023-04-15T07:03:03;6.18;;;4.97;;
934;SDS011;454;53.254;10.400;2023-04-15T07:05:29;13.15;;;9.55;;
934;SDS011;454;53.254;10.400;2023-04-15T07:07:57;10.60;;;6.55;;
934;SDS011;454;53.254;10.400;2023-04-15T07:10:25;11.63;;;7.68;;
934;SDS011;454;53.254;10.400;2023-04-15T07:12:52;14.10;;;8.95;;
934;SDS011;454;53.254;10.400;2023-04-15T07:15:20;14.52;;;9.27;;
934;SDS011;454;53.254;10.400;2023-04-15T07:17:47;10.63;;;6.57;;
934;SDS011;454;53.254;10.400;2023-04-15T07:20:14;13.10;;;7.10;;
934;SDS011;454;53.254;10.400;2023-04-15T07:22:41;12.65;;;7.13;;
934;SDS011;454;53.254;10.400;2023-04-15T07:25:07;10.18;;;7.28;;
934;SDS011;454;53.254;10.400;2023-04-15T07:27:36;9.70;;;8.05;;
934;SDS011;454;53.254;10.400;2023-04-15T07:30:02;15.38;;;11.57;;
934;SDS011;454;53.254;10.400;2023-04-15T07:32:30;15.85;;;9.18;;
934;SDS011;454;53.254;10.400;2023-04-15T07:34:57;18.23;;;10.32;;
934;SDS011;454;53.254;10.400;2023-04-15T07:37:23;16.48;;;9.27;;
934;SDS011;454;53.254;10.400;2023-04-15T07:39:50;23.90;;;12.48;;
934;SDS011;454;53.254;10.400;2023-04-15T07:42:17;14.82;;;6.68;;
934;SDS011;454;53.254;10.400;2023-04-15T07:44:45;17.58;;;7.15;;
934;SDS011;454;53.254;10.400;2023-04-15T07:47:12;14.25;;;9.05;;
934;SDS011;454;53.254;10.400;2023-04-15T07:49:40;8.63;;;7.90;;
934;SDS011;454;53.254;10.400;2023-04-15T07:52:07;16.55;;;11.50;;
934;SDS011;454;53.254;10.400;2023-04-15T07:54:34;15.00;;;8.90;;
934;SDS011;454;53.254;10.400;2023-04-15T07:57:00;21.52;;;9.93;;
934;SDS011;454;53.254;10.400;2023-04-15T07:59:28;17.60;;;8.23;;
934;SDS011;454;53.254;10.400;2023-04-15T08:01:58;25.38;;;10.68;;
934;SDS011;454;53.254;10.400;2023-04-15T08:04:25;14.23;;;9.27;;
934;SDS011;454;53.254;10.400;2023-04-15T08:06:52;13.23;;;7.85;;
934;SDS011;454;53.254;10.400;2023-04-15T08:09:19;13.52;;;7.78;;
934;SDS011;454;53.254;10.400;2023-04-15T08:11:47;27.05;;;12.43;;
934;SDS011;454;53.254;10.400;2023-04-15T08:14:14;25.52;;;10.65;;
934;SDS011;454;53.254;10.400;2023-04-15T08:16:41;27.35;;;11.90;;
934;SDS011;454;53.254;10.400;2023-04-15T08:19:09;23.70;;;11.25;;
934;SDS011;454;53.254;10.400;2023-04-15T08:21:36;14.65;;;8.70;;
934;SDS011;454;53.254;10.400;2023-04-15T08:24:02;15.38;;;8.80;;
934;SDS011;454;53.254;10.400;2023-04-15T08:26:29;21.05;;;7.57;;
934;SDS011;454;53.254;10.400;2023-04-15T08:28:56;15.80;;;8.90;;
934;SDS011;454;53.254;10.400;2023-04-15T08:31:24;21.60;;;8.40;;
934;SDS011;454;53.254;10.400;2023-04-15T08:33:52;17.75;;;11.82;;
934;SDS011;454;53.254;10.400;2023-04-15T08:36:22;31.90;;;11.50;;
934;SDS011;454;53.254;10.400;2023-04-15T08:38:48;18.40;;;11.25;;
934;SDS011;454;53.254;10.400;2023-04-15T08:41:18;21.73;;;11.85;;
934;SDS011;454;53.254;10.400;2023-04-15T08:43:50;13.77;;;10.50;;
934;SDS011;454;53.254;10.400;2023-04-15T08:46:19;13.15;;;10.65;;
934;SDS011;454;53.254;10.400;2023-04-15T08:48:47;19.05;;;9.25;;
934;SDS011;454;53.254;10.400;2023-04-15T08:51:14;13.85;;;7.93;;
934;SDS011;454;53.254;10.400;2023-04-15T08:53:43;21.67;;;9.52;;
934;SDS011;454;53.254;10.400;2023-04-15T08:56:11;17.15;;;8.77;;
934;SDS011;454;53.254;10.400;2023-04-15T08:58:39;14.48;;;9.60;;
934;SDS011;454;53.254;10.400;2023-04-15T09:01:06;11.73;;;10.15;;
934;SDS011;454;53.254;10.400;2023-04-15T09:03:33;25.15;;;14.35;;
934;SDS011;454;53.254;10.400;2023-04-15T09:06:03;15.70;;;8.90;;
934;SDS011;454;53.254;10.400;2023-04-15T09:08:30;18.65;;;12.05;;
934;SDS011;454;53.254;10.400;2023-04-15T09:10:59;17.77;;;10.13;;
934;SDS011;454;53.254;10.400;2023-04-15T09:13:27;25.10;;;9.45;;
934;SDS011;454;53.254;10.400;2023-04-15T09:15:54;14.85;;;9.15;;
934;SDS011;454;53.254;10.400;2023-04-15T09:18:28;22.20;;;12.68;;
934;SDS011;454;53.254;10.400;2023-04-15T09:21:02;12.20;;;10.18;;
934;SDS011;454;53.254;10.400;2023-04-15T09:23:31;19.00;;;10.88;;
934;SDS011;454;53.254;10.400;2023-04-15T09:25:59;20.65;;;10.35;;
934;SDS011;454;53.254;10.400;2023-04-15T09:28:26;15.80;;;11.27;;
934;SDS011;454;53.254;10.400;2023-04-15T09:30:56;16.15;;;9.80;;
934;SDS011;454;53.254;10.400;2023-04-15T09:33:24;22.58;;;11.60;;
934;SDS011;454;53.254;10.400;2023-04-15T09:35:58;22.80;;;10.80;;
934;SDS011;454;53.254;10.400;2023-04-15T09:38:26;20.35;;;8.07;;
934;SDS011;454;53.254;10.400;2023-04-15T09:40:53;14.32;;;10.38;;
934;SDS011;454;53.254;10.400;2023-04-15T09:43:21;19.67;;;13.05;;
934;SDS011;454;53.254;10.400;2023-04-15T09:45:52;9.77;;;7.00;;
934;SDS011;454;53.254;10.400;2023-04-15T09:48:20;9.02;;;6.60;;
934;SDS011;454;53.254;10.400;2023-04-15T09:50:50;18.75;;;10.68;;
934;SDS011;454;53.254;10.400;2023-04-15T09:53:18;15.52;;;7.80;;
934;SDS011;454;53.254;10.400;2023-04-15T09:55:48;13.30;;;7.05;;
934;SDS011;454;53.254;10.400;2023-04-15T09:58:19;10.65;;;6.97;;
934;SDS011;454;53.254;10.400;2023-04-15T10:00:48;27.00;;;12.52;;
934;SDS011;454;53.254;10.400;2023-04-15T10:03:17;20.63;;;10.77;;
934;SDS011;454;53.254;10.400;2023-04-15T10:05:46;19.15;;;11.18;;
934;SDS011;454;53.254;10.400;2023-04-15T10:08:14;10.93;;;7.18;;
934;SDS011;454;53.254;10.400;2023-04-15T10:10:43;16.48;;;9.55;;
934;SDS011;454;53.254;10.400;2023-04-15T10:13:10;20.30;;;9.48;;
934;SDS011;454;53.254;10.400;2023-04-15T10:15:39;14.75;;;8.88;;
934;SDS011;454;53.254;10.400;2023-04-15T10:18:10;13.77;;;7.43;;
934;SDS011;454;53.254;10.400;2023-04-15T10:20:38;11.85;;;9.30;;
934;SDS011;454;53.254;10.400;2023-04-15T10:23:05;14.45;;;7.85;;
934;SDS011;454;53.254;10.400;2023-04-15T10:25:33;17.40;;;11.00;;
934;SDS011;454;53.254;10.400;2023-04-15T10:28:01;12.60;;;9.65;;
934;SDS011;454;53.254;10.400;2023-04-15T10:30:29;20.42;;;9.02;;
934;SDS011;454;53.254;10.400;2023-04-15T10:32:58;8.75;;;7.10;;
934;SDS011;454;53.254;10.400;2023-04-15T10:35:26;17.13;;;9.52;;
934;SDS011;454;53.254;10.400;2023-04-15T10:37:54;19.35;;;8.95;;
934;SDS011;454;53.254;10.400;2023-04-15T10:40:25;15.63;;;10.35;;
934;SDS011;454;53.254;10.400;2023-04-15T10:42:53;14.18;;;9.93;;
934;SDS011;454;53.254;10.400;2023-04-15T10:45:21;17.27;;;10.52;;
934;SDS011;454;53.254;10.400;2023-04-15T10:47:51;19.10;;;12.55;;
934;SDS011;454;53.254;10.400;2023-04-15T10:50:20;20.27;;;12.25;;
934;SDS011;454;53.254;10.400;2023-04-15T10:52:50;16.97;;;13.43;;
934;SDS011;454;53.254;10.400;2023-04-15T10:55:18;11.97;;;9.77;;
934;SDS011;454;53.254;10.400;2023-04-15T10:57:46;12.37;;;9.30;;
934;SDS011;454;53.254;10.400;2023-04-15T11:00:17;14.37;;;10.27;;
934;SDS011;454;53.254;10.400;2023-04-15T11:02:46;14.50;;;9.50;;
934;SDS011;454;53.254;10.400;2023-04-15T11:05:17;16.23;;;11.53;;
934;SDS011;454;53.254;10.400;2023-04-15T11:07:50;17.07;;;9.37;;
934;SDS011;454;53.254;10.400;2023-04-15T11:13:26;11.33;;;6.87;;
934;SDS011;454;53.254;10.400;2023-04-15T11:15:56;14.43;;;9.30;;
934;SDS011;454;53.254;10.400;2023-04-15T11:18:28;14.67;;;10.27;;
934;SDS011;454;53.254;10.400;2023-04-15T11:20:57;11.60;;;7.93;;
934;SDS011;454;53.254;10.400;2023-04-15T11:23:28;13.77;;;10.07;;
934;SDS011;454;53.254;10.400;2023-04-15T11:26:00;14.90;;;8.67;;
934;SDS011;454;53.254;10.400;2023-04-15T11:28:30;18.57;;;9.27;;
934;SDS011;454;53.254;10.400;2023-04-15T11:31:02;15.70;;;9.30;;
934;SDS011;454;53.254;10.400;2023-04-15T11:33:32;14.57;;;10.40;;
934;SDS011;454;53.254;10.400;2023-04-15T11:35:59;13.07;;;10.20;;
934;SDS011;454;53.254;10.400;2023-04-15T11:38:28;13.23;;;9.53;;
934;SDS011;454;53.254;10.400;2023-04-15T11:40:56;13.77;;;9.40;;
934;SDS011;454;53.254;10.400;2023-04-15T11:43:23;11.33;;;8.00;;
934;SDS011;454;53.254;10.400;2023-04-15T11:45:51;13.73;;;8.43;;
934;SDS011;454;53.254;10.400;2023-04-15T11:48:21;16.93;;;9.30;;
934;SDS011;454;53.254;10.400;2023-04-15T11:50:52;9.40;;;7.50;;
934;SDS011;454;53.254;10.400;2023-04-15T11:53:20;9.10;;;7.47;;
934;SDS011;454;53.254;10.400;2023-04-15T11:55:49;9.87;;;7.50;;
934;SDS011;454;53.254;10.400;2023-04-15T11:58:18;13.87;;;9.47;;
934;SDS011;454;53.254;10.400;2023-04-15T12:00:46;14.40;;;8.30;;
934;SDS011;454;53.254;10.400;2023-04-15T12:03:16;9.93;;;8.40;;
934;SDS011;454;53.254;10.400;2023-04-15T12:08:52;10.97;;;8.37;;
934;SDS011;454;53.254;10.400;2023-04-15T12:11:27;8.07;;;7.30;;
934;SDS011;454;53.254;10.400;2023-04-15T12:13:56;12.00;;;7.67;;
934;SDS011;454;53.254;10.400;2023-04-15T12:16:26;11.33;;;7.53;;
934;SDS011;454;53.254;10.400;2023-04-15T12:18:53;7.77;;;6.97;;
934;SDS011;454;53.254;10.400;2023-04-15T12:21:21;13.10;;;8.60;;
934;SDS011;454;53.254;10.400;2023-04-15T12:23:49;16.80;;;8.57;;
934;SDS011;454;53.254;10.400;2023-04-15T12:26:17;12.17;;;7.93;;
934;SDS011;454;53.254;10.400;2023-04-15T12:28:53;10.60;;;7.97;;
934;SDS011;454;53.254;10.400;2023-04-15T12:31:21;11.83;;;8.73;;
934;SDS011;454;53.254;10.400;2023-04-15T12:33:48;15.60;;;9.70;;
934;SDS011;454;53.254;10.400;2023-04-15T12:36:15;12.73;;;7.60;;
934;SDS011;454;53.254;10.400;2023-04-15T12:38:42;9.07;;;6.33;;
934;SDS011;454;53.254;10.400;2023-04-15T12:41:08;10.10;;;7.90;;
934;SDS011;454;53.254;10.400;2023-04-15T12:43:35;9.70;;;6.90;;
934;SDS011;454;53.254;10.400;2023-04-15T12:46:03;7.03;;;6.37;;
934;SDS011;454;53.254;10.400;2023-04-15T12:48:30;13.47;;;7.83;;
934;SDS011;454;53.254;10.400;2023-04-15T12:50:58;10.17;;;8.20;;
934;SDS011;454;53.254;10.400;2023-04-15T12:53:25;8.90;;;6.70;;
934;SDS011;454;53.254;10.400;2023-04-15T12:55:52;11.13;;;7.20;;
934;SDS011;454;53.254;10.400;2023-04-15T12:58:19;8.60;;;6.40;;
934;SDS011;454;53.254;10.400;2023-04-15T13:00:46;6.97;;;5.73;;
934;SDS011;454;53.254;10.400;2023-04-15T13:03:14;12.93;;;7.23;;
934;SDS011;454;53.254;10.400;2023-04-15T13:05:41;7.67;;;6.93;;
934;SDS011;454;53.254;10.400;2023-04-15T13:08:08;7.13;;;6.43;;
934;SDS011;454;53.254;10.400;2023-04-15T13:10:35;5.43;;;4.93;;
934;SDS011;454;53.254;10.400;2023-04-15T13:13:02;6.30;;;5.80;;
934;SDS011;454;53.254;10.400;2023-04-15T13:15:29;7.20;;;6.57;;
934;SDS011;454;53.254;10.400;2023-04-15T13:17:56;6.70;;;5.73;;
934;SDS011;454;53.254;10.400;2023-04-15T13:20:24;8.87;;;7.20;;
934;SDS011;454;53.254;10.400;2023-04-15T13:22:51;6.93;;;5.87;;
934;SDS011;454;53.254;10.400;2023-04-15T13:25:19;9.67;;;7.80;;
934;SDS011;454;53.254;10.400;2023-04-15T13:27:45;5.90;;;5.10;;
934;SDS011;454;53.254;10.400;2023-04-15T13:30:12;6.77;;;5.93;;
934;SDS011;454;53.254;10.400;2023-04-15T13:32:39;10.17;;;6.80;;
934;SDS011;454;53.254;10.400;2023-04-15T13:35:06;6.97;;;6.33;;
934;SDS011;454;53.254;10.400;2023-04-15T13:37:34;5.70;;;5.10;;
934;SDS011;454;53.254;10.400;2023-04-15T13:40:01;6.10;;;5.50;;
934;SDS011;454;53.254;10.400;2023-04-15T13:42:31;7.17;;;6.47;;
934;SDS011;454;53.254;10.400;2023-04-15T13:44:58;7.50;;;5.47;;
934;SDS011;454;53.254;10.400;2023-04-15T13:47:24;10.10;;;6.60;;
934;SDS011;454;53.254;10.400;2023-04-15T13:49:51;9.10;;;7.60;;
934;SDS011;454;53.254;10.400;2023-04-15T13:52:20;6.07;;;5.47;;
934;SDS011;454;53.254;10.400;2023-04-15T13:54:48;10.83;;;6.60;;
934;SDS011;454;53.254;10.400;2023-04-15T13:57:15;14.73;;;7.40;;
934;SDS011;454;53.254;10.400;2023-04-15T13:59:42;6.43;;;5.80;;
934;SDS011;454;53.254;10.400;2023-04-15T14:02:09;6.87;;;6.23;;
934;SDS011;454;53.254;10.400;2023-04-15T14:04:36;5.80;;;5.30;;
934;SDS011;454;53.254;10.400;2023-04-15T14:07:03;8.43;;;6.73;;
934;SDS011;454;53.254;10.400;2023-04-15T14:09:30;6.47;;;5.40;;
934;SDS011;454;53.254;10.400;2023-04-15T14:11:58;6.93;;;6.37;;
934;SDS011;454;53.254;10.400;2023-04-15T14:14:25;7.50;;;6.37;;
934;SDS011;454;53.254;10.400;2023-04-15T14:16:52;9.77;;;6.30;;
934;SDS011;454;53.254;10.400;2023-04-15T14:19:20;6.20;;;4.90;;
934;SDS011;454;53.254;10.400;2023-04-15T14:21:46;6.40;;;5.80;;
934;SDS011;454;53.254;10.400;2023-04-15T14:24:13;10.13;;;7.00;;
934;SDS011;454;53.254;10.400;2023-04-15T14:26:41;9.93;;;5.60;;
934;SDS011;454;53.254;10.400;2023-04-15T14:29:10;6.93;;;5.20;;
934;SDS011;454;53.254;10.400;2023-04-15T14:31:36;5.07;;;4.50;;
934;SDS011;454;53.254;10.400;2023-04-15T14:34:03;10.20;;;5.27;;
934;SDS011;454;53.254;10.400;2023-04-15T14:36:30;5.03;;;4.53;;
934;SDS011;454;53.254;10.400;2023-04-15T14:38:57;6.87;;;5.70;;
934;SDS011;454;53.254;10.400;2023-04-15T14:41:24;3.50;;;3.17;;
934;SDS011;454;53.254;10.400;2023-04-15T14:43:51;5.77;;;5.37;;
934;SDS011;454;53.254;10.400;2023-04-15T14:46:19;5.53;;;5.03;;
934;SDS011;454;53.254;10.400;2023-04-15T14:48:46;5.60;;;5.10;;
934;SDS011;454;53.254;10.400;2023-04-15T14:51:13;6.20;;;5.60;;
934;SDS011;454;53.254;10.400;2023-04-15T14:53:40;8.27;;;6.40;;
934;SDS011;454;53.254;10.400;2023-04-15T14:56:07;5.83;;;4.57;;
934;SDS011;454;53.254;10.400;2023-04-15T14:58:33;5.03;;;4.63;;
934;SDS011;454;53.254;10.400;2023-04-15T15:01:00;6.83;;;6.30;;
934;SDS011;454;53.254;10.400;2023-04-15T15:03:29;11.17;;;5.47;;
934;SDS011;454;53.254;10.400;2023-04-15T15:05:56;5.97;;;5.47;;
934;SDS011;454;53.254;10.400;2023-04-15T15:08:23;14.60;;;4.60;;
934;SDS011;454;53.254;10.400;2023-04-15T15:10:50;3.70;;;3.40;;
934;SDS011;454;53.254;10.400;2023-04-15T15:13:16;4.47;;;4.00;;
934;SDS011;454;53.254;10.400;2023-04-15T15:15:44;5.50;;;5.00;;
934;SDS011;454;53.254;10.400;2023-04-15T15:18:13;8.77;;;6.47;;
934;SDS011;454;53.254;10.400;2023-04-15T15:20:42;4.80;;;4.03;;
934;SDS011;454;53.254;10.400;2023-04-15T15:23:08;6.90;;;4.53;;
934;SDS011;454;53.254;10.400;2023-04-15T15:25:35;6.33;;;5.40;;
934;SDS011;454;53.254;10.400;2023-04-15T15:28:02;5.53;;;5.13;;
934;SDS011;454;53.254;10.400;2023-04-15T15:30:29;4.53;;;3.57;;
934;SDS011;454;53.254;10.400;2023-04-15T15:32:56;6.93;;;6.37;;
934;SDS011;454;53.254;10.400;2023-04-15T15:35:23;6.77;;;5.50;;
934;SDS011;454;53.254;10.400;2023-04-15T15:37:52;4.00;;;3.60;;
934;SDS011;454;53.254;10.400;2023-04-15T15:40:19;5.57;;;5.07;;
934;SDS011;454;53.254;10.400;2023-04-15T15:42:46;13.80;;;5.53;;
934;SDS011;454;53.254;10.400;2023-04-15T15:45:14;6.40;;;5.13;;
934;SDS011;454;53.254;10.400;2023-04-15T15:47:41;8.30;;;6.70;;
934;SDS011;454;53.254;10.400;2023-04-15T15:50:08;10.23;;;6.80;;
934;SDS011;454;53.254;10.400;2023-04-15T15:52:35;7.93;;;5.50;;
934;SDS011;454;53.254;10.400;2023-04-15T15:55:04;6.63;;;6.10;;
934;SDS011;454;53.254;10.400;2023-04-15T15:57:31;5.77;;;5.43;;
934;SDS011;454;53.254;10.400;2023-04-15T15:59:58;7.90;;;7.20;;
934;SDS011;454;53.254;10.400;2023-04-15T16:02:24;6.23;;;5.60;;
934;SDS011;454;53.254;10.400;2023-04-15T16:04:51;7.70;;;5.03;;
934;SDS011;454;53.254;10.400;2023-04-15T16:07:18;8.67;;;6.87;;
934;SDS011;454;53.254;10.400;2023-04-15T16:09:45;6.13;;;5.53;;
934;SDS011;454;53.254;10.400;2023-04-15T16:12:13;7.13;;;5.87;;
934;SDS011;454;53.254;10.400;2023-04-15T16:14:39;6.07;;;5.40;;
934;SDS011;454;53.254;10.400;2023-04-15T16:17:07;7.60;;;6.30;;
934;SDS011;454;53.254;10.400;2023-04-15T16:19:34;5.97;;;5.37;;
934;SDS011;454;53.254;10.400;2023-04-15T16:22:01;6.77;;;6.13;;
934;SDS011;454;53.254;10.400;2023-04-15T16:24:27;9.60;;;6.33;;
934;SDS011;454;53.254;10.400;2023-04-15T16:26:54;7.70;;;7.00;;
934;SDS011;454;53.254;10.400;2023-04-15T16:29:24;10.07;;;5.83;;
934;SDS011;454;53.254;10.400;2023-04-15T16:31:51;6.80;;;6.20;;
934;SDS011;454;53.254;10.400;2023-04-15T16:34:18;5.33;;;4.93;;
934;SDS011;454;53.254;10.400;2023-04-15T16:36:44;6.00;;;4.60;;
934;SDS011;454;53.254;10.400;2023-04-15T16:39:11;5.80;;;5.50;;
934;SDS011;454;53.254;10.400;2023-04-15T16:41:38;10.50;;;7.53;;
934;SDS011;454;53.254;10.400;2023-04-15T16:44:06;7.67;;;6.90;;
934;SDS011;454;53.254;10.400;2023-04-15T16:46:36;9.47;;;6.23;;
934;SDS011;454;53.254;10.400;2023-04-15T16:49:02;16.17;;;6.77;;
934;SDS011;454;53.254;10.400;2023-04-15T16:51:29;10.07;;;7.80;;
934;SDS011;454;53.254;10.400;2023-04-15T16:53:56;8.40;;;7.50;;
934;SDS011;454;53.254;10.400;2023-04-15T16:56:23;8.37;;;7.27;;
934;SDS011;454;53.254;10.400;2023-04-15T16:58:50;8.23;;;5.63;;
934;SDS011;454;53.254;10.400;2023-04-15T17:01:17;8.30;;;6.77;;
934;SDS011;454;53.254;10.400;2023-04-15T17:03:46;8.93;;;7.40;;
934;SDS011;454;53.254;10.400;2023-04-15T17:06:13;7.80;;;7.03;;
934;SDS011;454;53.254;10.400;2023-04-15T17:08:40;8.30;;;6.80;;
934;SDS011;454;53.254;10.400;2023-04-15T17:11:08;7.77;;;7.03;;
934;SDS011;454;53.254;10.400;2023-04-15T17:13:36;7.77;;;6.90;;
934;SDS011;454;53.254;10.400;2023-04-15T17:16:02;7.87;;;6.90;;
934;SDS011;454;53.254;10.400;2023-04-15T17:18:29;8.00;;;5.20;;
934;SDS011;454;53.254;10.400;2023-04-15T17:20:57;8.43;;;7.47;;
934;SDS011;454;53.254;10.400;2023-04-15T17:23:24;13.50;;;8.90;;
934;SDS011;454;53.254;10.400;2023-04-15T17:25:51;14.43;;;8.23;;
934;SDS011;454;53.254;10.400;2023-04-15T17:28:18;9.17;;;8.27;;
934;SDS011;454;53.254;10.400;2023-04-15T17:30:45;6.93;;;5.60;;
934;SDS011;454;53.254;10.400;2023-04-15T17:33:11;6.63;;;5.60;;
934;SDS011;454;53.254;10.400;2023-04-15T17:35:38;8.52;;;7.72;;
934;SDS011;454;53.254;10.400;2023-04-15T17:38:06;8.83;;;7.30;;
934;SDS011;454;53.254;10.400;2023-04-15T17:40:33;8.20;;;6.33;;
934;SDS011;454;53.254;10.400;2023-04-15T17:43:00;6.50;;;5.83;;
934;SDS011;454;53.254;10.400;2023-04-15T17:45:26;9.77;;;7.50;;
934;SDS011;454;53.254;10.400;2023-04-15T17:47:53;7.18;;;6.65;;
934;SDS011;454;53.254;10.400;2023-04-15T17:50:20;6.65;;;4.65;;
934;SDS011;454;53.254;10.400;2023-04-15T17:52:47;9.40;;;6.30;;
934;SDS011;454;53.254;10.400;2023-04-15T17:55:15;10.68;;;8.45;;
934;SDS011;454;53.254;10.400;2023-04-15T17:57:43;9.93;;;7.82;;
934;SDS011;454;53.254;10.400;2023-04-15T18:00:11;12.15;;;7.93;;
934;SDS011;454;53.254;10.400;2023-04-15T18:02:39;12.52;;;7.75;;
934;SDS011;454;53.254;10.400;2023-04-15T18:05:06;11.38;;;7.88;;
934;SDS011;454;53.254;10.400;2023-04-15T18:07:33;8.85;;;6.20;;
934;SDS011;454;53.254;10.400;2023-04-15T18:10:00;10.70;;;7.47;;
934;SDS011;454;53.254;10.400;2023-04-15T18:12:28;13.38;;;9.23;;
934;SDS011;454;53.254;10.400;2023-04-15T18:14:55;9.73;;;8.00;;
934;SDS011;454;53.254;10.400;2023-04-15T18:17:21;15.35;;;11.90;;
934;SDS011;454;53.254;10.400;2023-04-15T18:19:48;14.52;;;10.23;;
934;SDS011;454;53.254;10.400;2023-04-15T18:22:15;9.18;;;7.38;;
934;SDS011;454;53.254;10.400;2023-04-15T18:24:42;9.68;;;8.25;;
934;SDS011;454;53.254;10.400;2023-04-15T18:27:09;9.70;;;7.57;;
934;SDS011;454;53.254;10.400;2023-04-15T18:29:37;15.98;;;8.07;;
934;SDS011;454;53.254;10.400;2023-04-15T18:32:03;9.32;;;8.45;;
934;SDS011;454;53.254;10.400;2023-04-15T18:34:30;13.02;;;10.40;;
934;SDS011;454;53.254;10.400;2023-04-15T18:36:57;12.07;;;8.00;;
934;SDS011;454;53.254;10.400;2023-04-15T18:39:24;9.13;;;8.25;;
934;SDS011;454;53.254;10.400;2023-04-15T18:41:51;16.02;;;7.72;;
934;SDS011;454;53.254;10.400;2023-04-15T18:44:17;8.05;;;6.18;;
934;SDS011;454;53.254;10.400;2023-04-15T18:46:46;9.65;;;8.73;;
934;SDS011;454;53.254;10.400;2023-04-15T18:49:13;9.07;;;7.13;;
934;SDS011;454;53.254;10.400;2023-04-15T18:51:40;9.00;;;6.80;;
934;SDS011;454;53.254;10.400;2023-04-15T18:54:07;9.75;;;8.18;;
934;SDS011;454;53.254;10.400;2023-04-15T18:56:34;10.27;;;7.82;;
934;SDS011;454;53.254;10.400;2023-04-15T18:59:01;8.70;;;7.85;;
934;SDS011;454;53.254;10.400;2023-04-15T19:01:28;9.40;;;8.48;;
934;SDS011;454;53.254;10.400;2023-04-15T19:03:57;6.82;;;6.25;;
934;SDS011;454;53.254;10.400;2023-04-15T19:06:24;9.73;;;8.93;;
934;SDS011;454;53.254;10.400;2023-04-15T19:08:52;15.75;;;9.30;;
934;SDS011;454;53.254;10.400;2023-04-15T19:11:19;23.30;;;9.20;;
934;SDS011;454;53.254;10.400;2023-04-15T19:13:46;13.32;;;10.13;;
934;SDS011;454;53.254;10.400;2023-04-15T19:16:13;8.15;;;7.53;;
934;SDS011;454;53.254;10.400;2023-04-15T19:18:40;11.88;;;8.82;;
934;SDS011;454;53.254;10.400;2023-04-15T19:21:08;10.63;;;7.53;;
934;SDS011;454;53.254;10.400;2023-04-15T19:23:35;12.70;;;8.13;;
934;SDS011;454;53.254;10.400;2023-04-15T19:26:02;16.73;;;9.25;;
934;SDS011;454;53.254;10.400;2023-04-15T19:28:29;21.45;;;11.98;;